createdAt,value
2023-01-29T00:00:35.413Z,12.73
2023-01-29T00:03:38.023Z,12.30
2023-01-29T00:06:40.720Z,13.07
2023-01-29T00:09:43.671Z,12.45
2023-01-29T00:12:46.323Z,12.73
2023-01-29T00:15:57.289Z,12.55
2023-01-29T00:19:02.053Z,11.33
2023-01-29T00:22:04.749Z,13.43
2023-01-29T00:25:08.143Z,12.63
2023-01-29T00:28:11.447Z,12.27
2023-01-29T00:31:20.676Z,12.95
2023-01-29T00:34:23.633Z,11.93
2023-01-29T00:37:26.464Z,12.20
2023-01-29T00:40:49.074Z,12.80
2023-01-29T00:44:10.156Z,13.30
2023-01-29T00:47:31.003Z,13.32
2023-01-29T00:50:34.428Z,13.60
2023-01-29T00:53:36.993Z,12.00
2023-01-29T00:56:39.604Z,12.80
2023-01-29T00:59:42.176Z,13.98
2023-01-29T01:03:08.256Z,12.45
2023-01-29T01:06:11.393Z,14.30
2023-01-29T01:09:33.123Z,12.43
2023-01-29T01:12:37.238Z,11.52
2023-01-29T01:15:40.561Z,12.23
2023-01-29T01:18:43.472Z,12.25
2023-01-29T01:21:48.395Z,12.90
2023-01-29T01:24:51.018Z,13.02
2023-01-29T01:31:12.407Z,12.88
2023-01-29T01:34:15.735Z,12.05
2023-01-29T01:37:18.416Z,11.90
2023-01-29T01:40:23.336Z,11.63
2023-01-29T01:43:26.447Z,12.52
2023-01-29T01:46:31.015Z,12.18
2023-01-29T01:49:33.700Z,11.77
2023-01-29T01:52:42.581Z,12.70
2023-01-29T01:55:52.920Z,12.18
2023-01-29T01:58:57.474Z,12.23
2023-01-29T02:02:18.964Z,13.00
2023-01-29T02:05:40.279Z,12.32
2023-01-29T02:09:14.506Z,11.70
2023-01-29T02:12:17.823Z,14.23
2023-01-29T02:15:20.662Z,11.95
2023-01-29T02:18:23.552Z,11.80
2023-01-29T02:21:57.029Z,13.15
2023-01-29T02:25:12.212Z,11.83
2023-01-29T02:28:23.932Z,13.25
2023-01-29T02:31:47.096Z,12.18
2023-01-29T02:35:22.095Z,13.07
2023-01-29T02:38:30.679Z,12.35
2023-01-29T02:41:44.563Z,12.30
2023-01-29T02:44:55.908Z,13.02
2023-01-29T02:48:00.795Z,13.07
2023-01-29T02:51:10.776Z,13.93
2023-01-29T02:54:35.177Z,11.43
2023-01-29T02:57:42.128Z,12.73
2023-01-29T03:00:48.263Z,13.52
2023-01-29T03:03:56.277Z,12.27
2023-01-29T03:07:04.228Z,12.20
2023-01-29T03:10:31.243Z,13.10
2023-01-29T03:13:49.303Z,13.27
2023-01-29T03:16:55.253Z,13.15
2023-01-29T03:19:58.685Z,12.82
2023-01-29T03:23:07.908Z,12.88
2023-01-29T03:26:33.980Z,12.35
2023-01-29T03:29:58.934Z,12.87
2023-01-29T03:33:15.262Z,12.48
2023-01-29T03:36:25.094Z,12.30
2023-01-29T03:39:29.259Z,13.52
2023-01-29T03:42:59.979Z,12.32
2023-01-29T03:46:11.858Z,14.23
2023-01-29T03:49:29.557Z,12.70
2023-01-29T03:53:14.577Z,13.50
2023-01-29T03:56:32.209Z,12.27
2023-01-29T04:00:02.325Z,12.30
2023-01-29T04:03:35.523Z,13.00
2023-01-29T04:06:43.026Z,13.52
2023-01-29T04:09:56.514Z,12.85
2023-01-29T04:13:04.251Z,12.15
2023-01-29T04:16:13.073Z,12.65
2023-01-29T04:19:39.597Z,13.63
2023-01-29T04:22:52.216Z,13.43
2023-01-29T04:26:10.228Z,13.68
2023-01-29T04:29:38.203Z,13.63
2023-01-29T04:32:53.147Z,13.40
2023-01-29T04:36:06.202Z,12.57
2023-01-29T04:39:28.912Z,13.10
2023-01-29T04:42:42.357Z,12.35
2023-01-29T04:45:53.756Z,12.13
2023-01-29T04:49:13.587Z,12.10
2023-01-29T04:52:36.095Z,12.47
2023-01-29T04:56:04.458Z,11.70
2023-01-29T04:59:16.665Z,13.15
2023-01-29T05:02:21.305Z,12.98
2023-01-29T05:05:24.041Z,13.27
2023-01-29T05:08:29.396Z,12.87
2023-01-29T05:11:34.652Z,12.38
2023-01-29T05:14:38.770Z,14.05
2023-01-29T05:17:42.671Z,12.75
2023-01-29T05:20:47.002Z,13.02
2023-01-29T05:24:14.165Z,12.67
2023-01-29T05:27:42.770Z,12.48
2023-01-29T05:30:51.393Z,11.88
2023-01-29T05:33:56.011Z,12.05
2023-01-29T05:36:58.806Z,11.70
2023-01-29T05:40:01.513Z,10.73
2023-01-29T05:43:05.889Z,11.75
2023-01-29T05:46:09.108Z,12.98
2023-01-29T05:49:11.968Z,11.43
2023-01-29T05:52:14.571Z,11.55
2023-01-29T05:55:17.320Z,11.73
2023-01-29T05:58:20.058Z,12.10
2023-01-29T06:01:25.470Z,11.90
2023-01-29T06:04:30.118Z,12.88
2023-01-29T06:07:32.849Z,12.73
2023-01-29T06:10:36.063Z,12.17
2023-01-29T06:13:39.525Z,13.02
2023-01-29T06:16:42.861Z,11.48
2023-01-29T06:19:45.469Z,11.35
2023-01-29T06:22:48.253Z,13.15
2023-01-29T06:25:50.848Z,13.70
2023-01-29T06:28:53.416Z,13.18
2023-01-29T06:31:56.073Z,11.65
2023-01-29T06:34:58.820Z,11.98
2023-01-29T06:38:01.478Z,12.25
2023-01-29T06:41:12.594Z,12.17
2023-01-29T06:44:15.283Z,11.20
2023-01-29T06:47:17.939Z,11.48
2023-01-29T06:50:20.613Z,11.88
2023-01-29T06:53:23.387Z,11.40
2023-01-29T06:56:26.207Z,11.33
2023-01-29T06:59:29.042Z,12.63
2023-01-29T07:02:31.870Z,11.65
2023-01-29T07:05:34.745Z,11.65
2023-01-29T07:08:40.836Z,12.15
2023-01-29T07:11:43.469Z,12.13
2023-01-29T07:14:46.519Z,12.27
2023-01-29T07:18:01.231Z,12.07
2023-01-29T07:21:09.192Z,10.88
2023-01-29T07:24:11.891Z,10.95
2023-01-29T07:27:14.728Z,11.80
2023-01-29T07:30:18.303Z,12.15
2023-01-29T07:33:21.579Z,11.65
2023-01-29T07:36:24.478Z,11.77
2023-01-29T07:39:27.326Z,12.02
2023-01-29T07:42:30.098Z,11.37
2023-01-29T07:45:34.953Z,11.25
2023-01-29T07:48:37.675Z,11.70
2023-01-29T07:51:40.428Z,11.98
2023-01-29T07:54:43.058Z,11.65
2023-01-29T07:57:45.849Z,10.33
2023-01-29T08:00:48.656Z,10.65
2023-01-29T08:03:51.573Z,11.00
2023-01-29T08:06:54.270Z,11.93
2023-01-29T08:09:56.871Z,11.80
2023-01-29T08:13:01.218Z,11.50
2023-01-29T08:16:04.919Z,10.80
2023-01-29T08:19:07.770Z,10.75
2023-01-29T08:22:10.640Z,10.48
2023-01-29T08:25:14.158Z,12.27
2023-01-29T08:28:16.834Z,10.87
2023-01-29T08:31:20.880Z,9.98
2023-01-29T08:34:23.931Z,10.50
2023-01-29T08:37:26.601Z,10.48
2023-01-29T08:40:34.230Z,10.10
2023-01-29T08:43:40.666Z,10.73
2023-01-29T08:46:43.444Z,11.50
2023-01-29T08:49:47.340Z,10.07
2023-01-29T08:52:49.995Z,10.77
2023-01-29T08:55:53.419Z,11.10
2023-01-29T08:58:57.308Z,9.80
2023-01-29T09:02:00.975Z,10.32
2023-01-29T09:05:04.701Z,10.07
2023-01-29T09:08:08.981Z,12.73
2023-01-29T09:11:11.859Z,10.88
2023-01-29T09:14:14.843Z,10.03
2023-01-29T09:17:17.563Z,9.65
2023-01-29T09:20:20.780Z,10.07
2023-01-29T09:23:24.084Z,11.05
2023-01-29T09:26:26.778Z,10.73
2023-01-29T09:29:29.510Z,10.63
2023-01-29T09:35:57.029Z,9.95
2023-01-29T09:38:59.980Z,8.63
2023-01-29T09:42:17.827Z,9.98
2023-01-29T09:45:28.713Z,10.50
2023-01-29T09:48:35.142Z,10.20
2023-01-29T09:51:42.095Z,9.88
2023-01-29T09:54:56.597Z,9.80
2023-01-29T09:58:22.172Z,9.43
2023-01-29T10:01:38.842Z,9.17
2023-01-29T10:05:03.377Z,8.68
2023-01-29T10:08:32.937Z,9.82
2023-01-29T10:11:49.771Z,9.63
2023-01-29T10:14:58.348Z,10.27
2023-01-29T10:18:09.710Z,8.97
2023-01-29T10:21:35.297Z,9.35
2023-01-29T10:24:58.284Z,9.80
2023-01-29T10:28:01.921Z,9.88
2023-01-29T10:31:20.820Z,9.05
2023-01-29T10:34:33.634Z,9.20
2023-01-29T10:37:43.479Z,9.45
2023-01-29T10:41:00.045Z,9.25
2023-01-29T10:44:11.992Z,9.07
2023-01-29T10:47:33.237Z,9.85
2023-01-29T10:50:44.716Z,8.73
2023-01-29T10:54:08.408Z,8.85
2023-01-29T10:57:26.387Z,8.73
2023-01-29T11:00:37.494Z,9.88
2023-01-29T11:03:40.319Z,9.32
2023-01-29T11:06:44.100Z,8.90
2023-01-29T11:09:51.950Z,11.05
2023-01-29T11:12:55.406Z,8.52
2023-01-29T11:15:58.142Z,10.00
2023-01-29T11:19:02.308Z,9.05
2023-01-29T11:22:05.591Z,10.07
2023-01-29T11:25:10.263Z,10.10
2023-01-29T11:28:12.944Z,8.85
2023-01-29T11:31:18.884Z,9.02
2023-01-29T11:34:25.261Z,9.43
2023-01-29T11:37:39.200Z,7.90
2023-01-29T11:40:43.264Z,9.20
2023-01-29T11:43:46.104Z,8.18
2023-01-29T11:46:50.031Z,8.68
2023-01-29T11:49:58.076Z,8.52
2023-01-29T11:53:01.688Z,9.73
2023-01-29T11:56:15.750Z,9.10
2023-01-29T11:59:44.261Z,8.52
2023-01-29T12:02:54.291Z,8.52
2023-01-29T12:06:04.466Z,8.00
2023-01-29T12:09:16.979Z,9.07
2023-01-29T12:12:37.565Z,8.93
2023-01-29T12:15:42.129Z,7.97
2023-01-29T12:18:52.608Z,9.15
2023-01-29T12:22:05.898Z,11.27
2023-01-29T12:25:31.797Z,8.60
2023-01-29T12:28:40.083Z,8.43
2023-01-29T12:31:50.667Z,9.32
2023-01-29T12:35:19.939Z,8.82
2023-01-29T12:38:24.101Z,8.88
2023-01-29T12:41:35.827Z,8.70
2023-01-29T12:44:48.780Z,8.05
2023-01-29T12:47:59.336Z,8.85
2023-01-29T12:51:15.620Z,8.60
2023-01-29T12:54:44.189Z,9.05
2023-01-29T12:57:56.544Z,9.13
2023-01-29T13:01:06.671Z,9.45
2023-01-29T13:04:29.417Z,7.40
2023-01-29T13:07:40.985Z,9.18
2023-01-29T13:10:49.740Z,8.77
2023-01-29T13:13:59.521Z,8.97
2023-01-29T13:17:28.930Z,8.25
2023-01-29T13:20:35.771Z,9.38
2023-01-29T13:23:44.193Z,7.68
2023-01-29T13:26:48.808Z,8.30
2023-01-29T13:29:52.848Z,9.10
2023-01-29T13:33:09.643Z,7.57
2023-01-29T13:36:22.104Z,8.73
2023-01-29T13:39:32.390Z,9.95
2023-01-29T13:42:41.377Z,8.10
2023-01-29T13:45:45.638Z,7.50
2023-01-29T13:48:51.937Z,8.68
2023-01-29T13:51:55.176Z,8.73
2023-01-29T13:55:31.905Z,7.60
2023-01-29T13:58:35.264Z,7.70
2023-01-29T14:01:47.120Z,8.23
2023-01-29T14:04:50.250Z,8.52
2023-01-29T14:07:53.450Z,7.55
2023-01-29T14:11:17.704Z,7.35
2023-01-29T14:14:50.892Z,8.18
2023-01-29T14:18:11.133Z,7.50
2023-01-29T14:21:17.022Z,8.05
2023-01-29T14:24:23.204Z,8.88
2023-01-29T14:27:27.210Z,8.13
2023-01-29T14:30:35.269Z,8.57
2023-01-29T14:33:43.510Z,8.50
2023-01-29T14:36:55.440Z,7.93
2023-01-29T14:40:14.014Z,8.80
2023-01-29T14:43:22.409Z,7.32
2023-01-29T14:46:34.481Z,8.52
2023-01-29T14:49:57.907Z,7.83
2023-01-29T14:53:10.388Z,8.10
2023-01-29T14:56:25.163Z,8.63
2023-01-29T14:59:32.130Z,7.93
2023-01-29T15:02:44.634Z,8.30
2023-01-29T15:05:49.698Z,8.03
2023-01-29T15:09:00.492Z,8.30
2023-01-29T15:12:32.765Z,8.52
2023-01-29T15:15:54.356Z,8.25
2023-01-29T15:19:11.742Z,8.35
2023-01-29T15:22:18.220Z,8.40
2023-01-29T15:25:21.964Z,7.88
2023-01-29T15:28:25.299Z,8.45
2023-01-29T15:31:29.290Z,7.95
2023-01-29T15:34:32.508Z,8.40
2023-01-29T15:37:37.161Z,9.00
2023-01-29T15:40:41.196Z,8.57
2023-01-29T15:43:50.316Z,8.30
2023-01-29T15:46:57.392Z,8.43
2023-01-29T15:50:00.672Z,8.63
2023-01-29T15:53:08.463Z,10.03
2023-01-29T15:56:13.629Z,9.10
2023-01-29T15:59:23.485Z,8.68
2023-01-29T16:02:39.887Z,9.27
2023-01-29T16:05:44.900Z,8.63
2023-01-29T16:08:52.203Z,8.80
2023-01-29T16:11:59.111Z,9.10
2023-01-29T16:15:05.596Z,8.98
2023-01-29T16:18:24.754Z,8.95
2023-01-29T16:21:31.848Z,9.27
2023-01-29T16:24:38.372Z,8.80
2023-01-29T16:27:45.239Z,10.75
2023-01-29T16:30:57.124Z,8.90
2023-01-29T16:34:10.371Z,9.55
2023-01-29T16:37:29.119Z,9.77
2023-01-29T16:40:36.320Z,9.97
2023-01-29T16:44:30.054Z,9.20
2023-01-29T16:47:44.203Z,10.98
2023-01-29T16:50:54.908Z,10.95
2023-01-29T16:54:08.937Z,9.48
2023-01-29T16:57:23.026Z,10.07
2023-01-29T17:00:31.760Z,11.18
2023-01-29T17:03:39.882Z,10.32
2023-01-29T17:06:49.851Z,10.48
2023-01-29T17:09:59.332Z,9.98
2023-01-29T17:13:10.514Z,10.33
2023-01-29T17:16:28.175Z,11.38
2023-01-29T17:19:33.440Z,11.27
2023-01-29T17:22:38.657Z,11.07
2023-01-29T17:25:44.443Z,11.70
2023-01-29T17:28:52.660Z,11.83
2023-01-29T17:32:00.617Z,11.48
2023-01-29T17:35:06.791Z,11.23
2023-01-29T17:38:25.554Z,10.95
2023-01-29T17:41:32.922Z,11.30
2023-01-29T17:44:37.376Z,10.60
2023-01-29T17:47:44.304Z,11.80
2023-01-29T17:50:51.551Z,12.48
2023-01-29T17:53:56.795Z,10.60
2023-01-29T17:57:00.975Z,11.02
2023-01-29T18:00:15.968Z,10.70
2023-01-29T18:03:23.922Z,11.48
2023-01-29T18:06:30.378Z,11.15
2023-01-29T18:09:34.422Z,11.80
2023-01-29T18:12:38.777Z,11.88
2023-01-29T18:15:44.198Z,11.83
2023-01-29T18:18:49.261Z,11.48
2023-01-29T18:21:54.043Z,12.20
2023-01-29T18:24:59.966Z,13.93
2023-01-29T18:28:06.312Z,12.30
2023-01-29T18:31:12.388Z,14.63
2023-01-29T18:34:18.464Z,12.23
2023-01-29T18:37:23.296Z,10.60
2023-01-29T18:40:27.569Z,13.25
2023-01-29T18:43:31.973Z,12.48
2023-01-29T18:46:36.278Z,12.53
2023-01-29T18:49:41.539Z,12.82
2023-01-29T18:52:47.547Z,11.80
2023-01-29T18:56:06.698Z,12.27
2023-01-29T18:59:10.869Z,11.77
2023-01-29T19:02:17.110Z,12.30
2023-01-29T19:05:24.289Z,13.15
2023-01-29T19:08:28.825Z,13.15
2023-01-29T19:11:35.068Z,12.13
2023-01-29T19:14:41.408Z,12.52
2023-01-29T19:17:46.209Z,11.87
2023-01-29T19:20:51.049Z,12.93
2023-01-29T19:23:55.922Z,12.07
2023-01-29T19:27:02.603Z,13.38
2023-01-29T19:30:09.172Z,12.52
2023-01-29T19:33:14.364Z,12.43
2023-01-29T19:36:20.409Z,11.93
2023-01-29T19:39:29.994Z,12.63
2023-01-29T19:42:37.919Z,14.40
2023-01-29T19:45:49.988Z,12.45
2023-01-29T19:48:57.568Z,13.63
2023-01-29T19:52:02.288Z,12.85
2023-01-29T19:55:11.598Z,13.77
2023-01-29T19:58:15.444Z,13.18
2023-01-29T20:01:22.732Z,12.75
2023-01-29T20:04:29.838Z,13.73
2023-01-29T20:07:36.525Z,13.00
2023-01-29T20:10:46.007Z,13.50
2023-01-29T20:13:52.772Z,13.90
2023-01-29T20:16:56.843Z,15.90
2023-01-29T20:20:01.146Z,13.80
2023-01-29T20:23:08.466Z,15.05
2023-01-29T20:26:16.109Z,16.02
2023-01-29T20:29:21.998Z,14.50
2023-01-29T20:32:26.542Z,14.85
2023-01-29T20:35:32.231Z,13.23
2023-01-29T20:38:36.878Z,14.43
2023-01-29T20:41:42.355Z,14.02
2023-01-29T20:44:47.059Z,13.80
2023-01-29T20:47:51.689Z,14.07
2023-01-29T20:50:56.081Z,14.37
2023-01-29T20:54:01.607Z,13.38
2023-01-29T20:57:08.251Z,14.13
2023-01-29T21:00:16.107Z,13.13
2023-01-29T21:03:20.987Z,14.52
2023-01-29T21:06:26.021Z,12.83
2023-01-29T21:09:29.409Z,13.30
2023-01-29T21:12:37.188Z,12.57
2023-01-29T21:15:43.148Z,15.35
2023-01-29T21:18:47.571Z,13.77
2023-01-29T21:21:51.392Z,14.57
2023-01-29T21:24:55.639Z,12.80
2023-01-29T21:28:05.993Z,12.82
2023-01-29T21:31:14.791Z,12.77
2023-01-29T21:34:18.635Z,13.30
2023-01-29T21:37:21.665Z,13.30
2023-01-29T21:40:25.488Z,13.38
2023-01-29T21:43:28.586Z,13.23
2023-01-29T21:46:33.247Z,11.70
2023-01-29T21:49:36.359Z,12.57
2023-01-29T21:52:40.934Z,13.60
2023-01-29T21:55:45.345Z,12.32
2023-01-29T21:58:51.509Z,11.98
2023-01-29T22:01:54.364Z,11.13
2023-01-29T22:05:17.708Z,11.10
2023-01-29T22:08:21.718Z,11.80
2023-01-29T22:11:24.379Z,12.65
2023-01-29T22:14:27.068Z,10.65
2023-01-29T22:17:29.686Z,12.30
2023-01-29T22:20:32.401Z,10.85
2023-01-29T22:23:35.043Z,11.17
2023-01-29T22:26:37.776Z,12.43
2023-01-29T22:29:41.252Z,11.02
2023-01-29T22:32:44.094Z,11.18
2023-01-29T22:35:46.602Z,9.98
2023-01-29T22:38:49.266Z,10.93
2023-01-29T22:41:52.105Z,12.60
2023-01-29T22:44:54.899Z,11.45
2023-01-29T22:47:57.620Z,9.88
2023-01-29T22:51:09.571Z,10.70
2023-01-29T22:54:12.407Z,12.23
2023-01-29T22:57:15.618Z,11.25
2023-01-29T23:00:19.057Z,12.68
2023-01-29T23:03:21.907Z,10.20
2023-01-29T23:06:24.698Z,10.77
2023-01-29T23:09:27.586Z,10.93
2023-01-29T23:12:30.576Z,12.65
2023-01-29T23:15:33.202Z,11.70
2023-01-29T23:18:36.402Z,11.75
2023-01-29T23:21:39.924Z,10.20
2023-01-29T23:24:42.832Z,9.80
2023-01-29T23:27:45.451Z,10.73
2023-01-29T23:30:48.146Z,10.60
2023-01-29T23:33:51.209Z,9.90
2023-01-29T23:36:53.812Z,10.90
2023-01-29T23:39:56.544Z,11.40
2023-01-29T23:42:59.183Z,10.43
2023-01-29T23:46:01.943Z,10.13
2023-01-29T23:49:04.656Z,10.05
2023-01-29T23:52:07.976Z,9.63
2023-01-29T23:55:10.607Z,9.93
2023-01-29T23:58:13.237Z,10.10
